Time;durP1;ratioP1;P1;durP2;ratioP2;P2;SDS_P1;SDS_P2;PMS_P1;PMS_P2;Temp;Humidity;BMP_temperature;BMP_pressure;BME280_temperature;BME280_humidity;BME280_pressure;Samples;Min_cycle;Max_cycle;Signal;HPM_P1;HPM_P2
2021/03/12 00:01:58;;;;;;;4.55;0.88;;;;;13.00;100037.00;;;;5073414;28;20210;-75
2021/03/12 00:04:25;;;;;;;2.55;0.57;;;;;13.00;100045.00;;;;5072369;28;20210;-75
2021/03/12 00:06:52;;;;;;;7.95;1.25;;;;;13.00;100049.00;;;;5073456;28;20665;-74
2021/03/12 00:09:18;;;;;;;6.38;1.10;;;;;13.10;100060.00;;;;5071064;28;20768;-74
2021/03/12 00:11:46;;;;;;;4.68;0.90;;;;;13.00;100076.00;;;;5073801;28;20205;-74
2021/03/12 00:14:13;;;;;;;2.42;0.55;;;;;13.10;100069.00;;;;5071042;28;20707;-75
2021/03/12 00:16:39;;;;;;;2.03;0.63;;;;;13.10;100076.00;;;;5073050;28;20683;-75
2021/03/12 00:19:06;;;;;;;5.82;0.82;;;;;13.10;100078.00;;;;5070337;28;20191;-75
2021/03/12 00:21:33;;;;;;;12.27;0.95;;;;;13.10;100085.00;;;;5073732;28;20191;-75
2021/03/12 00:24:00;;;;;;;4.90;1.17;;;;;13.10;100087.00;;;;5071531;28;20194;-75
2021/03/12 00:26:26;;;;;;;4.90;1.48;;;;;13.10;100094.00;;;;5071585;28;20286;-75
2021/03/12 00:28:54;;;;;;;1.90;0.73;;;;;13.10;100093.00;;;;5071323;28;20815;-75
2021/03/12 00:31:21;;;;;;;4.50;0.77;;;;;13.10;100096.00;;;;5071937;28;20198;-74
2021/03/12 00:33:47;;;;;;;4.10;0.80;;;;;13.10;100101.00;;;;5071386;28;20202;-75
2021/03/12 00:36:14;;;;;;;5.85;1.50;;;;;13.10;100130.00;;;;5074028;28;20199;-74
2021/03/12 00:38:41;;;;;;;3.30;0.93;;;;;13.10;100115.00;;;;5071112;28;20207;-75
2021/03/12 00:41:08;;;;;;;2.92;0.90;;;;;13.10;100126.00;;;;5072016;28;20203;-74
2021/03/12 00:43:36;;;;;;;4.70;1.00;;;;;13.10;100136.00;;;;5070538;28;20190;-75
2021/03/12 00:46:08;;;;;;;3.42;1.00;;;;;13.00;100138.00;;;;5071347;28;20202;-75
2021/03/12 00:48:35;;;;;;;6.28;0.95;;;;;13.00;100142.00;;;;5089323;28;20198;-75
2021/03/12 00:51:03;;;;;;;4.50;0.98;;;;;13.00;100145.00;;;;5088103;28;20194;-75
2021/03/12 00:53:29;;;;;;;4.43;0.75;;;;;13.00;100166.00;;;;5077985;28;20220;-75
2021/03/12 00:55:56;;;;;;;2.38;0.90;;;;;13.00;100159.00;;;;5087288;28;20191;-75
2021/03/12 00:58:24;;;;;;;2.63;0.90;;;;;13.00;100165.00;;;;5073310;28;20226;-74
2021/03/12 01:00:51;;;;;;;5.50;0.95;;;;;13.00;100159.00;;;;5082083;28;20198;-75
2021/03/12 01:03:19;;;;;;;3.03;0.80;;;;;13.00;100167.00;;;;5079597;28;20798;-75
2021/03/12 01:05:46;;;;;;;1.63;0.52;;;;;13.00;100182.00;;;;5090259;28;21072;-75
2021/03/12 01:08:12;;;;;;;4.30;1.20;;;;;13.00;100185.00;;;;5076409;28;20195;-74
2021/03/12 01:10:41;;;;;;;8.60;0.90;;;;;12.90;100189.00;;;;5082491;28;20229;-74
2021/03/12 01:13:08;;;;;;;3.20;1.08;;;;;12.90;100193.00;;;;5088690;28;20187;-75
2021/03/12 01:15:34;;;;;;;5.38;0.50;;;;;12.90;100187.00;;;;5080962;28;20191;-75
2021/03/12 01:18:01;;;;;;;1.45;0.47;;;;;12.90;100192.00;;;;5073218;28;20191;-75
2021/03/12 01:20:31;;;;;;;2.70;0.73;;;;;12.90;100203.00;;;;5073321;28;20206;-75
2021/03/12 01:23:00;;;;;;;4.22;0.90;;;;;12.90;100201.00;;;;5077515;28;20197;-75
2021/03/12 01:25:29;;;;;;;3.55;0.60;;;;;12.90;100207.00;;;;5071472;28;20248;-75
2021/03/12 01:27:56;;;;;;;2.80;0.60;;;;;12.90;100206.00;;;;5069788;28;20580;-74
2021/03/12 01:30:25;;;;;;;4.10;1.23;;;;;12.80;100214.00;;;;5077087;28;20225;-74
2021/03/12 01:32:52;;;;;;;3.80;1.08;;;;;12.80;100217.00;;;;5089526;28;20197;-75
2021/03/12 01:35:19;;;;;;;3.60;0.95;;;;;12.80;100205.00;;;;5082201;28;20203;-74
2021/03/12 01:37:47;;;;;;;7.93;1.35;;;;;12.80;100205.00;;;;5078158;28;20202;-74
2021/03/12 01:40:17;;;;;;;8.88;1.33;;;;;12.80;100222.00;;;;5087877;28;20190;-74
2021/03/12 01:42:44;;;;;;;6.40;1.40;;;;;12.80;100212.00;;;;5089025;28;20277;-74
2021/03/12 01:45:15;;;;;;;3.88;1.00;;;;;12.70;100213.00;;;;5089090;28;20202;-74
2021/03/12 01:47:42;;;;;;;4.68;1.23;;;;;12.80;100212.00;;;;5087567;28;20702;-74
2021/03/12 01:50:10;;;;;;;3.15;0.80;;;;;12.80;100222.00;;;;5073730;28;20230;-74
2021/03/12 01:52:37;;;;;;;4.88;1.17;;;;;12.70;100226.00;;;;5086089;28;20190;-75
2021/03/12 01:55:06;;;;;;;5.22;1.15;;;;;12.70;100225.00;;;;5082966;28;20198;-75
2021/03/12 01:57:34;;;;;;;3.45;1.45;;;;;12.70;100223.00;;;;5087788;28;20202;-74
2021/03/12 02:00:01;;;;;;;5.10;0.77;;;;;12.70;100225.00;;;;5085694;28;20202;-75
2021/03/12 02:02:27;;;;;;;3.85;1.05;;;;;12.70;100222.00;;;;5086190;28;20195;-74
2021/03/12 02:04:54;;;;;;;4.35;0.90;;;;;12.70;100238.00;;;;5077424;28;20194;-75
2021/03/12 02:07:21;;;;;;;5.93;1.52;;;;;12.70;100238.00;;;;5089363;28;20195;-75
2021/03/12 02:09:48;;;;;;;3.10;0.82;;;;;12.70;100238.00;;;;5079008;28;20226;-75
2021/03/12 02:12:22;;;;;;;3.60;1.20;;;;;12.70;100241.00;;;;5071884;28;20745;-75
2021/03/12 02:14:56;;;;;;;7.07;1.35;;;;;12.70;100253.00;;;;5087667;28;20886;-75
2021/03/12 02:17:28;;;;;;;4.47;0.98;;;;;12.70;100259.00;;;;5088457;28;20247;-74
2021/03/12 02:20:15;;;;;;;3.13;0.73;;;;;12.60;100253.00;;;;5086211;28;20186;-74
2021/03/12 02:22:44;;;;;;;3.42;1.05;;;;;12.70;100258.00;;;;5082999;28;20190;-75
2021/03/12 02:25:16;;;;;;;4.45;1.15;;;;;12.70;100255.00;;;;5088446;28;20194;-74
2021/03/12 02:27:45;;;;;;;7.35;1.20;;;;;12.70;100262.00;;;;5087457;28;20699;-75
2021/03/12 02:30:13;;;;;;;5.10;1.00;;;;;12.70;100265.00;;;;5086645;28;20226;-74
2021/03/12 02:32:42;;;;;;;2.80;0.95;;;;;12.70;100263.00;;;;5071557;28;20693;-74
2021/03/12 02:35:12;;;;;;;2.72;0.98;;;;;12.70;100266.00;;;;5073883;28;20198;-75
2021/03/12 02:37:40;;;;;;;5.53;1.33;;;;;12.70;100261.00;;;;5073229;28;20252;-75
2021/03/12 02:40:10;;;;;;;5.03;1.13;;;;;12.70;100273.00;;;;5074375;28;20190;-74
2021/03/12 02:42:38;;;;;;;3.88;1.02;;;;;12.70;100268.00;;;;5074459;28;20202;-75
2021/03/12 02:45:08;;;;;;;3.22;1.00;;;;;12.70;100275.00;;;;5073547;28;20206;-75
2021/03/12 02:47:36;;;;;;;2.88;0.93;;;;;12.70;100278.00;;;;5075128;28;20221;-75
2021/03/12 02:50:05;;;;;;;3.03;1.17;;;;;12.70;100285.00;;;;5083404;28;20722;-75
2021/03/12 02:52:32;;;;;;;5.28;0.90;;;;;12.70;100276.00;;;;5088324;28;20210;-75
2021/03/12 02:54:59;;;;;;;6.07;1.40;;;;;12.70;100276.00;;;;5087989;28;20239;-75
2021/03/12 02:57:26;;;;;;;5.82;1.15;;;;;12.60;100275.00;;;;5076024;28;20202;-75
2021/03/12 02:59:54;;;;;;;3.10;0.55;;;;;12.60;100283.00;;;;5080512;28;20206;-74
2021/03/12 03:02:25;;;;;;;5.60;0.80;;;;;12.60;100282.00;;;;5087327;28;20653;-75
2021/03/12 03:04:54;;;;;;;3.47;0.88;;;;;12.60;100283.00;;;;5076701;28;20255;-74
2021/03/12 03:07:21;;;;;;;2.42;0.82;;;;;12.60;100292.00;;;;5086149;28;20244;-75
2021/03/12 03:09:51;;;;;;;2.78;0.70;;;;;12.60;100291.00;;;;5086402;28;20222;-75
2021/03/12 03:12:19;;;;;;;1.80;0.63;;;;;12.60;100289.00;;;;5088340;28;20198;-75
2021/03/12 03:14:49;;;;;;;2.33;0.60;;;;;12.60;100300.00;;;;5086638;28;20255;-74
2021/03/12 03:17:17;;;;;;;3.03;1.00;;;;;12.60;100298.00;;;;5079969;28;20543;-75
2021/03/12 03:19:49;;;;;;;5.50;0.80;;;;;12.50;100303.00;;;;5081824;28;20194;-75
2021/03/12 03:22:17;;;;;;;6.40;1.08;;;;;12.50;100307.00;;;;5075548;28;20183;-74
2021/03/12 03:24:44;;;;;;;5.03;0.85;;;;;12.50;100312.00;;;;5080413;28;20695;-75
2021/03/12 03:27:12;;;;;;;5.38;1.13;;;;;12.50;100303.00;;;;5078826;28;20211;-75
2021/03/12 03:29:38;;;;;;;5.15;0.77;;;;;12.40;100309.00;;;;5074942;28;20222;-75
2021/03/12 03:32:06;;;;;;;5.05;0.73;;;;;12.40;100319.00;;;;5082295;28;20207;-75
2021/03/12 03:34:33;;;;;;;3.78;0.70;;;;;12.30;100312.00;;;;5067217;28;20190;-75
2021/03/12 03:37:01;;;;;;;1.98;0.85;;;;;12.20;100318.00;;;;5078084;28;20203;-75
2021/03/12 03:39:28;;;;;;;3.33;0.70;;;;;12.20;100312.00;;;;5089293;28;20186;-75
2021/03/12 03:41:59;;;;;;;5.88;0.88;;;;;12.10;100313.00;;;;5079730;28;20194;-74
2021/03/12 03:44:28;;;;;;;3.83;0.70;;;;;12.10;100320.00;;;;5071709;28;20210;-75
2021/03/12 03:46:57;;;;;;;8.55;0.95;;;;;12.00;100318.00;;;;5081759;28;20218;-74
2021/03/12 03:49:26;;;;;;;2.88;0.82;;;;;12.00;100319.00;;;;5077530;28;20683;-74
2021/03/12 03:51:53;;;;;;;6.97;1.17;;;;;11.90;100315.00;;;;5091285;28;20197;-75
2021/03/12 03:54:22;;;;;;;10.15;0.90;;;;;11.90;100318.00;;;;5090677;28;20206;-74
2021/03/12 03:56:50;;;;;;;10.35;1.27;;;;;11.80;100321.00;;;;5089205;28;20871;-74
2021/03/12 03:59:18;;;;;;;3.30;0.80;;;;;11.80;100333.00;;;;5089829;28;20206;-74
2021/03/12 04:01:46;;;;;;;3.40;1.02;;;;;11.70;100330.00;;;;5089200;28;20206;-74
2021/03/12 04:04:13;;;;;;;5.10;0.70;;;;;11.60;100334.00;;;;5083072;28;20199;-74
2021/03/12 04:06:42;;;;;;;4.40;1.10;;;;;11.60;100334.00;;;;5091745;28;20202;-74
2021/03/12 04:09:12;;;;;;;2.90;1.10;;;;;11.60;100331.00;;;;5087287;28;20329;-75
2021/03/12 04:11:40;;;;;;;3.90;0.93;;;;;11.50;100331.00;;;;5089251;28;20198;-74
2021/03/12 04:14:08;;;;;;;6.30;1.10;;;;;11.50;100326.00;;;;5091139;28;20190;-75
2021/03/12 04:16:36;;;;;;;2.63;0.70;;;;;11.40;100332.00;;;;5090247;28;20825;-75
2021/03/12 04:19:04;;;;;;;4.10;0.82;;;;;11.40;100332.00;;;;5076820;28;20194;-75
2021/03/12 04:21:32;;;;;;;4.03;0.60;;;;;11.30;100339.00;;;;5087777;28;20676;-74
2021/03/12 04:24:00;;;;;;;4.82;0.73;;;;;11.30;100345.00;;;;5083125;28;20195;-74
2021/03/12 04:26:27;;;;;;;5.72;0.77;;;;;11.30;100339.00;;;;5071185;28;20203;-74
2021/03/12 04:28:55;;;;;;;4.50;0.70;;;;;11.20;100339.00;;;;5074876;28;20214;-74
2021/03/12 04:31:22;;;;;;;3.55;0.88;;;;;11.20;100344.00;;;;5090243;28;20201;-75
2021/03/12 04:33:50;;;;;;;8.60;1.13;;;;;11.20;100337.00;;;;5083342;28;20205;-74
2021/03/12 04:36:17;;;;;;;3.50;0.88;;;;;11.20;100341.00;;;;5081230;28;20199;-74
2021/03/12 04:38:45;;;;;;;1.95;0.47;;;;;11.10;100334.00;;;;5071894;28;20202;-74
2021/03/12 04:41:13;;;;;;;5.93;0.70;;;;;11.10;100342.00;;;;5076556;28;21064;-75
2021/03/12 04:43:40;;;;;;;5.68;0.63;;;;;11.10;100342.00;;;;5079601;28;20206;-74
2021/03/12 04:46:08;;;;;;;3.65;0.85;;;;;11.10;100336.00;;;;5075085;28;20209;-74
2021/03/12 04:48:36;;;;;;;4.20;0.70;;;;;11.00;100342.00;;;;5089161;28;20201;-74
2021/03/12 04:51:06;;;;;;;1.88;0.50;;;;;11.10;100341.00;;;;5079065;28;20745;-74
2021/03/12 04:53:33;;;;;;;8.88;1.13;;;;;11.00;100345.00;;;;5079390;28;20202;-74
2021/03/12 04:56:00;;;;;;;3.45;0.80;;;;;11.00;100341.00;;;;5074569;28;20277;-74
2021/03/12 04:58:28;;;;;;;5.20;0.88;;;;;11.00;100347.00;;;;5071308;28;20665;-74
2021/03/12 05:00:55;;;;;;;2.90;0.65;;;;;11.00;100343.00;;;;5087406;28;20195;-74
2021/03/12 05:03:23;;;;;;;3.47;1.10;;;;;11.00;100350.00;;;;5074980;28;21521;-74
2021/03/12 05:05:50;;;;;;;6.07;0.70;;;;;11.00;100351.00;;;;5082402;28;20198;-74
2021/03/12 05:08:18;;;;;;;4.35;0.70;;;;;11.00;100346.00;;;;5084877;28;20214;-74
2021/03/12 05:10:58;;;;;;;2.15;0.60;;;;;10.90;100353.00;;;;5073954;28;20246;-75
2021/03/12 05:13:25;;;;;;;3.40;0.65;;;;;11.00;100361.00;;;;5084367;28;20195;-74
2021/03/12 05:15:52;;;;;;;5.47;0.60;;;;;11.00;100353.00;;;;5076124;28;20207;-75
2021/03/12 05:18:19;;;;;;;2.63;0.40;;;;;11.00;100352.00;;;;5084825;28;20198;-74
2021/03/12 05:20:47;;;;;;;1.90;0.57;;;;;11.00;100356.00;;;;5079001;28;20210;-75
2021/03/12 05:23:14;;;;;;;2.85;0.57;;;;;10.90;100354.00;;;;5076928;28;20240;-74
2021/03/12 05:25:42;;;;;;;2.92;0.40;;;;;11.00;100361.00;;;;5080862;28;20736;-74
2021/03/12 05:28:09;;;;;;;2.17;0.65;;;;;10.90;100360.00;;;;5083929;28;20221;-75
2021/03/12 05:30:36;;;;;;;3.97;0.95;;;;;10.90;100361.00;;;;5088479;28;20244;-74
2021/03/12 05:33:04;;;;;;;6.53;1.63;;;;;10.90;100366.00;;;;5089503;28;20684;-74
2021/03/12 05:35:31;;;;;;;5.15;0.47;;;;;10.90;100354.00;;;;5082802;28;20195;-74
2021/03/12 05:37:59;;;;;;;5.03;0.90;;;;;10.90;100362.00;;;;5090035;28;20210;-75
2021/03/12 05:40:25;;;;;;;1.70;0.32;;;;;11.00;100372.00;;;;5084895;28;20209;-74
2021/03/12 05:42:54;;;;;;;4.55;0.77;;;;;11.00;100371.00;;;;5078398;28;20207;-74
2021/03/12 05:45:21;;;;;;;1.52;0.40;;;;;11.00;100371.00;;;;5082671;28;20244;-74
2021/03/12 05:47:49;;;;;;;4.20;1.02;;;;;11.00;100368.00;;;;5081684;28;20843;-75
2021/03/12 05:50:18;;;;;;;6.35;1.55;;;;;11.00;100371.00;;;;5089177;28;20226;-75
2021/03/12 05:52:46;;;;;;;4.93;1.58;;;;;11.00;100375.00;;;;5080052;28;20308;-74
2021/03/12 05:55:16;;;;;;;4.82;0.68;;;;;11.00;100373.00;;;;5085393;28;20324;-74
2021/03/12 05:57:43;;;;;;;4.70;0.52;;;;;11.00;100369.00;;;;5081753;28;20191;-74
2021/03/12 06:00:11;;;;;;;2.33;0.60;;;;;11.00;100370.00;;;;5071322;28;20210;-74
2021/03/12 06:02:38;;;;;;;4.43;0.60;;;;;11.00;100373.00;;;;5079224;28;20581;-75
2021/03/12 06:05:07;;;;;;;4.72;0.60;;;;;11.00;100370.00;;;;5077557;28;20198;-75
2021/03/12 06:07:34;;;;;;;5.32;1.10;;;;;11.00;100373.00;;;;5084705;28;20332;-75
2021/03/12 06:10:00;;;;;;;4.00;0.88;;;;;11.00;100373.00;;;;5089450;28;20655;-75
2021/03/12 06:12:29;;;;;;;4.78;0.80;;;;;11.00;100378.00;;;;5087911;28;20206;-75
2021/03/12 06:14:57;;;;;;;3.63;1.15;;;;;11.00;100382.00;;;;5086169;28;21325;-75
2021/03/12 06:17:34;;;;;;;3.03;0.52;;;;;10.90;100377.00;;;;5086835;28;20205;-74
2021/03/12 06:20:03;;;;;;;2.40;0.75;;;;;11.00;100383.00;;;;5068690;28;20194;-75
2021/03/12 06:22:29;;;;;;;5.80;1.23;;;;;11.00;100374.00;;;;5068875;28;20195;-75
2021/03/12 06:25:12;;;;;;;2.15;0.60;;;;;10.90;100373.00;;;;5074196;28;20190;-75
2021/03/12 06:27:40;;;;;;;5.82;1.02;;;;;10.90;100377.00;;;;5089153;28;20226;-75
2021/03/12 06:30:08;;;;;;;6.88;0.60;;;;;10.90;100375.00;;;;5085619;28;20228;-74
2021/03/12 06:32:40;;;;;;;4.65;1.13;;;;;10.90;100377.00;;;;5070616;28;20617;-74
2021/03/12 06:35:08;;;;;;;6.05;1.30;;;;;10.90;100378.00;;;;5088226;28;20667;-74
2021/03/12 06:37:36;;;;;;;4.20;1.13;;;;;10.90;100375.00;;;;5081348;28;20198;-74
2021/03/12 06:40:16;;;;;;;1.88;0.50;;;;;10.80;100376.00;;;;5079809;28;20206;-74
2021/03/12 06:43:01;;;;;;;5.20;0.80;;;;;10.80;100371.00;;;;5087325;28;20573;-74
2021/03/12 06:45:28;;;;;;;5.50;1.02;;;;;10.90;100373.00;;;;5088370;28;20251;-74
2021/03/12 06:48:14;;;;;;;5.28;0.93;;;;;10.80;100370.00;;;;5078264;28;20658;-74
2021/03/12 06:50:45;;;;;;;6.55;0.80;;;;;10.90;100360.00;;;;5071248;28;20272;-74
2021/03/12 06:53:24;;;;;;;4.93;0.85;;;;;10.80;100374.00;;;;5073759;28;20205;-73
2021/03/12 06:55:51;;;;;;;6.03;1.10;;;;;10.90;100369.00;;;;5088279;28;20212;-74
2021/03/12 06:58:19;;;;;;;6.40;1.45;;;;;10.90;100364.00;;;;5079700;28;20690;-75
2021/03/12 07:00:47;;;;;;;8.23;1.10;;;;;10.90;100371.00;;;;5069660;28;20207;-75
2021/03/12 07:03:22;;;;;;;3.65;1.13;;;;;10.90;100372.00;;;;5081470;28;20202;-76
2021/03/12 07:06:14;;;;;;;4.78;1.25;;;;;10.90;100361.00;;;;5070591;28;20199;-76
2021/03/12 07:08:42;;;;;;;9.98;1.17;;;;;11.10;100370.00;;;;5064687;28;20711;-76
2021/03/12 07:11:23;;;;;;;8.30;1.05;;;;;11.10;100374.00;;;;5068459;28;20234;-76
2021/03/12 07:13:53;;;;;;;3.72;1.05;;;;;11.10;100375.00;;;;5075716;28;20198;-76
2021/03/12 07:16:20;;;;;;;7.38;1.00;;;;;11.20;100372.00;;;;5087818;28;20198;-76
2021/03/12 07:18:48;;;;;;;5.47;0.90;;;;;11.20;100371.00;;;;5087510;28;20206;-76
2021/03/12 07:21:16;;;;;;;4.28;0.85;;;;;11.30;100376.00;;;;5087074;28;20209;-75
2021/03/12 07:23:46;;;;;;;3.88;0.98;;;;;11.30;100372.00;;;;5087669;28;20202;-76
2021/03/12 07:26:14;;;;;;;2.63;0.80;;;;;11.30;100370.00;;;;5087446;28;20190;-76
2021/03/12 07:28:42;;;;;;;6.93;1.20;;;;;11.30;100365.00;;;;5076176;28;20217;-76
2021/03/12 07:31:12;;;;;;;5.80;1.38;;;;;11.30;100364.00;;;;5068521;28;20223;-76
2021/03/12 07:33:43;;;;;;;5.55;1.50;;;;;11.40;100355.00;;;;5069492;28;20453;-76
2021/03/12 07:36:11;;;;;;;6.90;1.30;;;;;11.40;100358.00;;;;5087311;28;20209;-75
2021/03/12 07:38:41;;;;;;;3.95;0.80;;;;;11.40;100361.00;;;;5086397;28;20213;-76
2021/03/12 07:41:08;;;;;;;5.20;1.10;;;;;11.40;100363.00;;;;5067706;28;20202;-76
2021/03/12 07:43:37;;;;;;;4.25;1.00;;;;;11.50;100359.00;;;;5067518;28;20203;-76
2021/03/12 07:46:06;;;;;;;5.70;1.15;;;;;11.50;100367.00;;;;5067244;28;20199;-76
2021/03/12 07:48:35;;;;;;;6.60;1.42;;;;;11.50;100367.00;;;;5071064;28;20202;-74
2021/03/12 07:51:06;;;;;;;6.35;1.02;;;;;11.50;100359.00;;;;5085712;28;20687;-75
2021/03/12 07:53:50;;;;;;;5.68;1.23;;;;;11.50;100360.00;;;;5077404;28;20194;-75
2021/03/12 07:56:18;;;;;;;2.35;0.80;;;;;11.60;100358.00;;;;5077059;28;20228;-75
2021/03/12 07:58:56;;;;;;;7.53;1.23;;;;;11.60;100347.00;;;;5080240;28;20212;-75
2021/03/12 08:01:25;;;;;;;10.80;1.67;;;;;11.70;100355.00;;;;5086902;28;20213;-75
2021/03/12 08:03:53;;;;;;;3.47;0.73;;;;;11.80;100356.00;;;;5087271;28;20194;-75
2021/03/12 08:06:29;;;;;;;5.47;0.82;;;;;11.80;100368.00;;;;5085518;28;20194;-75
2021/03/12 08:08:56;;;;;;;7.18;1.30;;;;;11.90;100347.00;;;;5087320;28;20210;-75
2021/03/12 08:11:24;;;;;;;6.38;1.00;;;;;12.00;100346.00;;;;5088176;28;20226;-77
2021/03/12 08:13:52;;;;;;;10.10;1.67;;;;;12.10;100351.00;;;;5076744;28;20253;-76
2021/03/12 08:16:19;;;;;;;3.10;1.05;;;;;12.20;100347.00;;;;5069603;28;20195;-76
2021/03/12 08:18:47;;;;;;;6.38;1.40;;;;;12.30;100354.00;;;;5081088;28;20546;-75
2021/03/12 08:21:33;;;;;;;6.82;1.60;;;;;12.30;100353.00;;;;5071753;28;20224;-75
2021/03/12 08:24:01;;;;;;;10.32;1.75;;;;;12.50;100362.00;;;;5079596;28;20613;-76
2021/03/12 08:26:50;;;;;;;6.30;1.23;;;;;12.60;100362.00;;;;5082950;28;20194;-75
2021/03/12 08:29:34;;;;;;;7.28;1.10;;;;;12.70;100348.00;;;;5090552;28;20217;-75
2021/03/12 08:32:01;;;;;;;5.90;1.58;;;;;12.90;100355.00;;;;5086745;28;20567;-75
2021/03/12 08:34:46;;;;;;;12.90;1.85;;;;;12.90;100341.00;;;;5072420;28;20205;-75
2021/03/12 08:37:38;;;;;;;7.80;1.60;;;;;13.00;100338.00;;;;5077081;28;20526;-75
2021/03/12 08:40:24;;;;;;;8.10;1.48;;;;;13.10;100340.00;;;;5079463;28;20203;-77
2021/03/12 08:43:00;;;;;;;3.00;0.77;;;;;13.30;100336.00;;;;5083703;28;20267;-76
2021/03/12 08:45:37;;;;;;;5.93;0.98;;;;;13.40;100330.00;;;;5090280;28;20198;-77
2021/03/12 08:48:09;;;;;;;6.85;1.10;;;;;13.50;100340.00;;;;5086190;28;20641;-77
2021/03/12 08:50:39;;;;;;;7.97;1.60;;;;;13.60;100345.00;;;;5071995;28;20215;-75
2021/03/12 08:53:07;;;;;;;9.20;1.38;;;;;13.70;100335.00;;;;5073831;28;20191;-76
2021/03/12 08:55:34;;;;;;;10.20;1.75;;;;;13.80;100335.00;;;;5090405;28;20198;-76
2021/03/12 08:58:15;;;;;;;8.38;1.80;;;;;13.80;100334.00;;;;5089518;28;20253;-76
2021/03/12 09:00:42;;;;;;;8.38;1.20;;;;;13.90;100344.00;;;;5082647;28;20201;-76
2021/03/12 09:03:20;;;;;;;5.43;1.63;;;;;14.00;100334.00;;;;5078399;28;20210;-75
2021/03/12 09:05:49;;;;;;;6.18;1.45;;;;;14.10;100317.00;;;;5090375;28;20672;-76
2021/03/12 09:08:22;;;;;;;5.90;1.52;;;;;14.10;100333.00;;;;5087682;28;20191;-77
2021/03/12 09:10:50;;;;;;;8.43;1.70;;;;;14.20;100317.00;;;;5077815;28;20218;-77
2021/03/12 09:13:18;;;;;;;6.22;1.33;;;;;14.10;100315.00;;;;5085270;28;20684;-76
2021/03/12 09:15:45;;;;;;;8.77;1.70;;;;;14.20;100322.00;;;;5082422;28;20556;-77
2021/03/12 09:18:16;;;;;;;7.18;1.67;;;;;14.20;100331.00;;;;5085359;28;20220;-77
2021/03/12 09:20:44;;;;;;;5.07;1.42;;;;;14.20;100318.00;;;;5085720;28;20640;-77
2021/03/12 09:23:11;;;;;;;6.53;1.15;;;;;14.30;100305.00;;;;5073005;28;20195;-76
2021/03/12 09:25:38;;;;;;;6.85;1.30;;;;;14.30;100301.00;;;;5069687;28;20256;-77
2021/03/12 09:28:09;;;;;;;4.15;1.20;;;;;14.30;100300.00;;;;5071093;28;20925;-77
2021/03/12 09:30:38;;;;;;;12.10;2.05;;;;;14.40;100305.00;;;;5076796;28;20264;-77
2021/03/12 09:33:08;;;;;;;7.90;1.67;;;;;14.40;100298.00;;;;5080997;28;20206;-78
2021/03/12 09:35:39;;;;;;;6.93;1.80;;;;;14.40;100296.00;;;;5088741;28;20205;-78
2021/03/12 09:38:07;;;;;;;10.38;2.22;;;;;14.50;100293.00;;;;5072800;28;20206;-78
2021/03/12 09:40:37;;;;;;;5.75;1.60;;;;;14.60;100301.00;;;;5079034;28;20214;-77
2021/03/12 09:43:06;;;;;;;9.48;2.70;;;;;14.60;100291.00;;;;5084696;28;20199;-76
2021/03/12 09:45:33;;;;;;;5.90;1.70;;;;;14.60;100284.00;;;;5075759;28;20199;-75
2021/03/12 09:48:00;;;;;;;8.13;2.15;;;;;14.60;100295.00;;;;5070060;28;20318;-77
2021/03/12 09:50:27;;;;;;;6.93;2.22;;;;;14.60;100292.00;;;;5079185;28;20335;-76
2021/03/12 09:52:57;;;;;;;6.95;1.88;;;;;14.60;100292.00;;;;5070126;28;20198;-77
2021/03/12 09:55:25;;;;;;;4.72;1.70;;;;;14.60;100276.00;;;;5077921;28;20209;-76
2021/03/12 09:57:52;;;;;;;9.55;2.33;;;;;14.70;100280.00;;;;5076348;28;20680;-76
2021/03/12 10:00:26;;;;;;;7.38;2.22;;;;;14.60;100277.00;;;;5069624;28;20207;-76
2021/03/12 10:02:55;;;;;;;4.13;1.80;;;;;14.70;100274.00;;;;5075563;28;20668;-76
2021/03/12 10:05:23;;;;;;;5.60;1.80;;;;;14.60;100268.00;;;;5080728;28;20229;-78
2021/03/12 10:07:51;;;;;;;9.35;2.10;;;;;14.60;100274.00;;;;5089069;28;20190;-77
2021/03/12 10:10:23;;;;;;;7.80;2.47;;;;;14.50;100288.00;;;;5090084;28;20218;-76
2021/03/12 10:12:52;;;;;;;5.50;2.00;;;;;14.40;100276.00;;;;5089471;28;20202;-76
2021/03/12 10:15:20;;;;;;;3.80;1.85;;;;;14.40;100288.00;;;;5086895;28;20202;-77
2021/03/12 10:17:49;;;;;;;4.57;1.27;;;;;14.30;100295.00;;;;5089969;28;20198;-76
2021/03/12 10:20:28;;;;;;;4.80;1.85;;;;;14.10;100283.00;;;;5077836;28;20198;-77
2021/03/12 10:22:58;;;;;;;2.42;1.45;;;;;14.10;100282.00;;;;5081807;28;20583;-77
2021/03/12 10:25:28;;;;;;;4.93;1.90;;;;;14.10;100279.00;;;;5084421;28;20226;-77
2021/03/12 10:27:56;;;;;;;7.63;1.70;;;;;14.00;100278.00;;;;5085012;28;20222;-78
2021/03/12 10:30:29;;;;;;;4.30;1.45;;;;;14.00;100288.00;;;;5072923;28;20221;-76
2021/03/12 10:32:58;;;;;;;6.65;1.42;;;;;14.00;100285.00;;;;5088660;28;20198;-78
2021/03/12 10:35:28;;;;;;;5.68;1.58;;;;;13.90;100279.00;;;;5089482;28;20571;-77
2021/03/12 10:37:57;;;;;;;5.60;2.35;;;;;13.90;100271.00;;;;5086791;28;20190;-77
2021/03/12 10:40:26;;;;;;;8.80;2.22;;;;;13.90;100270.00;;;;5081545;28;20570;-76
2021/03/12 10:42:54;;;;;;;7.18;1.95;;;;;13.90;100271.00;;;;5083259;28;20199;-78
2021/03/12 10:45:27;;;;;;;5.22;1.52;;;;;13.90;100261.00;;;;5069622;28;20194;-78
2021/03/12 10:48:03;;;;;;;5.88;2.35;;;;;13.90;100252.00;;;;5077166;28;20284;-79
2021/03/12 10:50:33;;;;;;;5.85;1.48;;;;;14.10;100253.00;;;;5075654;28;20229;-78
2021/03/12 10:53:05;;;;;;;4.78;1.48;;;;;14.10;100241.00;;;;5085463;28;20194;-78
2021/03/12 10:55:32;;;;;;;7.32;1.88;;;;;14.20;100244.00;;;;5077790;28;20197;-79
2021/03/12 10:58:00;;;;;;;4.20;1.38;;;;;14.20;100243.00;;;;5073189;28;20286;-77
2021/03/12 11:00:29;;;;;;;5.20;1.40;;;;;14.20;100242.00;;;;5088250;28;20205;-77
2021/03/12 11:03:02;;;;;;;4.30;1.02;;;;;14.20;100245.00;;;;5089358;28;20198;-78
2021/03/12 11:05:30;;;;;;;5.55;1.85;;;;;14.30;100246.00;;;;5084530;28;20191;-77
2021/03/12 11:07:57;;;;;;;4.65;1.58;;;;;14.20;100257.00;;;;5068477;28;20218;-77
2021/03/12 11:10:24;;;;;;;4.38;1.73;;;;;14.30;100241.00;;;;5068070;28;20238;-77
2021/03/12 11:12:53;;;;;;;4.18;1.95;;;;;14.30;100241.00;;;;5072784;28;20578;-77
2021/03/12 11:15:21;;;;;;;6.50;1.60;;;;;14.30;100231.00;;;;5075007;28;20243;-77
2021/03/12 11:17:48;;;;;;;5.50;1.80;;;;;14.40;100228.00;;;;5072098;28;20669;-77
2021/03/12 11:20:19;;;;;;;6.90;2.20;;;;;14.40;100221.00;;;;5083424;28;20662;-78
2021/03/12 11:22:47;;;;;;;3.65;1.40;;;;;14.50;100220.00;;;;5079226;28;20211;-78
2021/03/12 11:25:16;;;;;;;3.45;1.85;;;;;14.50;100209.00;;;;5075157;28;20213;-77
2021/03/12 11:27:44;;;;;;;4.47;1.90;;;;;14.50;100203.00;;;;5088145;28;20218;-77
2021/03/12 11:30:13;;;;;;;3.75;1.60;;;;;14.50;100201.00;;;;5084693;28;20217;-77
2021/03/12 11:32:40;;;;;;;7.05;2.10;;;;;14.60;100193.00;;;;5077101;28;20194;-78
2021/03/12 11:35:08;;;;;;;6.93;2.60;;;;;14.60;100195.00;;;;5076533;28;20199;-75
2021/03/12 11:37:36;;;;;;;3.83;2.03;;;;;14.60;100198.00;;;;5072090;28;20221;-77
2021/03/12 11:40:04;;;;;;;4.70;1.98;;;;;14.70;100189.00;;;;5081970;28;20676;-78
2021/03/12 11:42:31;;;;;;;6.65;2.22;;;;;14.70;100189.00;;;;5067393;28;20190;-78
2021/03/12 11:44:58;;;;;;;7.03;1.80;;;;;14.80;100187.00;;;;5068293;28;20221;-79
2021/03/12 11:47:25;;;;;;;7.57;2.60;;;;;14.80;100185.00;;;;5068688;28;20224;-78
2021/03/12 11:49:52;;;;;;;5.45;2.25;;;;;14.80;100187.00;;;;5077744;28;20206;-77
2021/03/12 11:52:25;;;;;;;7.40;1.77;;;;;14.80;100171.00;;;;5088202;28;20190;-77
2021/03/12 11:54:53;;;;;;;8.63;2.08;;;;;14.80;100169.00;;;;5088021;28;20284;-77
2021/03/12 11:57:20;;;;;;;6.28;1.98;;;;;14.80;100151.00;;;;5090080;28;20194;-77
2021/03/12 11:59:47;;;;;;;5.97;1.55;;;;;14.80;100155.00;;;;5092117;28;20660;-78
2021/03/12 12:02:15;;;;;;;5.88;2.03;;;;;14.90;100149.00;;;;5091952;28;20202;-77
2021/03/12 12:04:42;;;;;;;6.63;1.88;;;;;14.80;100147.00;;;;5092104;28;20277;-77
2021/03/12 12:07:09;;;;;;;3.55;1.55;;;;;14.80;100142.00;;;;5092456;28;20267;-78
2021/03/12 12:09:35;;;;;;;7.20;1.88;;;;;14.80;100130.00;;;;5092166;28;20206;-77
2021/03/12 12:12:04;;;;;;;4.38;1.50;;;;;14.80;100142.00;;;;5092479;28;20228;-76
2021/03/12 12:14:30;;;;;;;5.20;2.03;;;;;14.80;100127.00;;;;5092358;28;20580;-77
2021/03/12 12:16:57;;;;;;;5.45;1.38;;;;;14.80;100137.00;;;;5091907;28;20194;-77
2021/03/12 12:19:24;;;;;;;4.15;1.55;;;;;14.80;100123.00;;;;5092521;28;20663;-77